Time;durP1;ratioP1;P1;durP2;ratioP2;P2;SDS_P1;SDS_P2;PMS_P1;PMS_P2;Temp;Humidity;BMP_temperature;BMP_pressure;BME280_temperature;BME280_humidity;BME280_pressure;Samples;Min_cycle;Max_cycle;Signal;HPM_P1;HPM_P2
2021/08/26 00:01:10;;;;;;;5.78;1.10;;;16.10;99.90;;;;;;4989059;28;20022;-86
2021/08/26 00:06:21;;;;;;;3.10;1.27;;;16.10;99.90;;;;;;4986311;28;20112;-86
2021/08/26 00:08:50;;;;;;;4.38;1.15;;;16.10;99.90;;;;;;4990403;28;20032;-85
2021/08/26 00:11:21;;;;;;;3.85;1.20;;;16.10;99.90;;;;;;4990658;28;20031;-86
2021/08/26 00:13:48;;;;;;;2.65;1.08;;;16.00;99.90;;;;;;4993029;28;20180;-86
2021/08/26 00:16:17;;;;;;;3.35;1.02;;;16.10;99.90;;;;;;4988778;28;20030;-85
2021/08/26 00:18:43;;;;;;;2.30;1.05;;;16.10;99.90;;;;;;4987854;28;20038;-86
2021/08/26 00:21:08;;;;;;;5.72;1.60;;;16.10;99.90;;;;;;4989746;28;20042;-86
2021/08/26 00:23:35;;;;;;;2.92;0.70;;;16.10;99.90;;;;;;4991092;28;20026;-86
2021/08/26 00:26:00;;;;;;;3.03;0.70;;;16.00;99.90;;;;;;4988571;28;20050;-86
2021/08/26 00:28:26;;;;;;;2.17;0.80;;;16.00;99.90;;;;;;4990205;28;20036;-86
2021/08/26 00:30:51;;;;;;;3.75;0.90;;;16.00;99.90;;;;;;4989017;28;20431;-86
2021/08/26 00:33:17;;;;;;;3.08;0.80;;;16.00;99.90;;;;;;4987563;28;20026;-85
2021/08/26 00:35:43;;;;;;;3.97;0.70;;;16.00;99.90;;;;;;4991117;28;20088;-86
2021/08/26 00:38:08;;;;;;;1.67;0.60;;;16.00;99.90;;;;;;4990581;28;20026;-86
2021/08/26 00:40:34;;;;;;;2.78;0.50;;;15.90;99.90;;;;;;4983702;28;20049;-85
2021/08/26 00:43:00;;;;;;;3.50;0.70;;;15.90;99.90;;;;;;4987286;28;20035;-86
2021/08/26 00:45:28;;;;;;;3.20;0.65;;;15.90;99.90;;;;;;4981991;28;20026;-86
2021/08/26 00:47:55;;;;;;;2.30;0.50;;;15.90;99.90;;;;;;4989265;28;20029;-86
2021/08/26 00:50:23;;;;;;;3.30;0.50;;;15.90;99.90;;;;;;4991694;28;20503;-86
2021/08/26 00:52:49;;;;;;;4.03;1.08;;;15.90;99.90;;;;;;4988848;28;20023;-86
2021/08/26 00:55:15;;;;;;;3.92;0.60;;;16.00;99.90;;;;;;4991831;28;20034;-85
2021/08/26 00:57:40;;;;;;;2.47;0.50;;;15.90;99.90;;;;;;4993627;28;20470;-85
2021/08/26 01:00:09;;;;;;;1.70;0.50;;;16.00;99.90;;;;;;4993227;28;20027;-86
2021/08/26 01:03:15;;;;;;;3.05;0.70;;;16.00;99.90;;;;;;4977022;28;20039;-86
2021/08/26 01:05:53;;;;;;;6.43;0.70;;;16.00;99.90;;;;;;4982277;28;20027;-86
2021/08/26 01:08:45;;;;;;;5.05;0.57;;;16.00;99.90;;;;;;4991221;28;20494;-86
2021/08/26 01:11:12;;;;;;;1.92;0.65;;;16.00;99.90;;;;;;5006570;28;20030;-86
2021/08/26 01:13:40;;;;;;;2.60;0.60;;;15.90;99.90;;;;;;4990975;28;20290;-85
2021/08/26 01:16:07;;;;;;;6.05;0.65;;;16.00;99.90;;;;;;4995256;28;20034;-85
2021/08/26 01:18:41;;;;;;;5.70;0.55;;;16.00;99.90;;;;;;4988366;28;20031;-85
2021/08/26 01:21:08;;;;;;;6.63;0.60;;;16.00;99.90;;;;;;4988300;28;20077;-85
2021/08/26 01:23:36;;;;;;;4.05;0.88;;;16.00;99.90;;;;;;4992764;28;20014;-86
2021/08/26 01:26:06;;;;;;;3.05;0.52;;;16.00;99.90;;;;;;4993052;28;20056;-86
2021/08/26 01:28:40;;;;;;;5.10;0.75;;;16.00;99.90;;;;;;5027484;28;20545;-86
2021/08/26 01:31:06;;;;;;;4.28;0.50;;;16.00;99.90;;;;;;4981351;28;20046;-85
2021/08/26 01:33:33;;;;;;;6.82;0.60;;;16.00;99.90;;;;;;4994378;28;20073;-86
2021/08/26 01:36:03;;;;;;;3.95;0.85;;;16.00;99.90;;;;;;4994703;28;20081;-86
2021/08/26 01:38:28;;;;;;;5.38;0.60;;;16.00;99.90;;;;;;4993231;28;20030;-86
2021/08/26 01:40:54;;;;;;;7.40;0.77;;;16.00;99.90;;;;;;4992736;28;20061;-86
2021/08/26 01:43:20;;;;;;;4.55;0.68;;;16.00;99.90;;;;;;4993078;28;20030;-86
2021/08/26 01:45:47;;;;;;;6.25;0.90;;;16.00;99.90;;;;;;4991744;28;20030;-86
2021/08/26 01:48:17;;;;;;;3.95;0.77;;;16.00;99.90;;;;;;5006187;28;20089;-86
2021/08/26 01:50:47;;;;;;;6.07;0.65;;;16.00;99.90;;;;;;5027280;28;20629;-86
2021/08/26 01:53:17;;;;;;;5.50;1.10;;;16.00;99.90;;;;;;5024548;28;20292;-86
2021/08/26 01:55:45;;;;;;;5.63;0.80;;;16.00;99.90;;;;;;4993071;28;20023;-85
2021/08/26 01:58:11;;;;;;;11.13;1.30;;;16.00;99.90;;;;;;4987793;28;20049;-86
2021/08/26 02:00:38;;;;;;;4.43;0.63;;;16.00;99.90;;;;;;4990510;28;20386;-86
2021/08/26 02:03:03;;;;;;;4.47;0.75;;;16.00;99.90;;;;;;4993052;28;20038;-86
2021/08/26 02:05:29;;;;;;;6.10;0.90;;;16.00;99.90;;;;;;4991799;28;20038;-86
2021/08/26 02:07:55;;;;;;;4.30;0.75;;;16.00;99.90;;;;;;4991689;28;20037;-85
2021/08/26 02:10:21;;;;;;;7.53;0.80;;;16.00;99.90;;;;;;4988341;28;20038;-86
2021/08/26 02:12:46;;;;;;;5.78;0.80;;;16.00;99.90;;;;;;4993915;28;20055;-86
2021/08/26 02:15:12;;;;;;;5.57;1.10;;;15.90;99.90;;;;;;4993946;28;20042;-86
2021/08/26 02:17:37;;;;;;;4.80;1.10;;;16.00;99.90;;;;;;4991408;28;20034;-86
2021/08/26 02:20:07;;;;;;;6.35;0.90;;;16.00;99.90;;;;;;4989780;28;20030;-86
2021/08/26 02:22:33;;;;;;;2.80;0.73;;;15.90;99.90;;;;;;4990783;28;20125;-86
2021/08/26 02:24:58;;;;;;;7.82;1.30;;;15.90;99.90;;;;;;4992296;28;20113;-86
2021/08/26 02:27:24;;;;;;;12.15;1.30;;;15.90;99.90;;;;;;4993151;28;20030;-86
2021/08/26 02:29:49;;;;;;;4.53;1.20;;;15.90;99.90;;;;;;4992871;28;20121;-86
2021/08/26 02:32:15;;;;;;;9.45;1.20;;;15.90;99.90;;;;;;4990610;28;20507;-86
2021/08/26 02:34:40;;;;;;;6.55;1.20;;;15.90;99.90;;;;;;4991060;28;20080;-86
2021/08/26 02:37:07;;;;;;;7.45;1.25;;;15.90;99.90;;;;;;4991735;28;20417;-86
2021/08/26 02:39:36;;;;;;;5.95;1.35;;;15.80;99.90;;;;;;4990079;28;20031;-86
2021/08/26 02:42:05;;;;;;;6.55;1.00;;;15.80;99.90;;;;;;5003397;28;20061;-85
2021/08/26 02:44:31;;;;;;;9.65;1.35;;;15.80;99.90;;;;;;5005694;28;20038;-86
2021/08/26 02:46:57;;;;;;;5.22;0.90;;;15.80;99.80;;;;;;4993931;28;20030;-86
2021/08/26 02:49:22;;;;;;;7.82;1.17;;;15.80;99.70;;;;;;4990734;28;20467;-86
2021/08/26 02:51:48;;;;;;;5.82;1.50;;;15.80;99.70;;;;;;4989775;28;20034;-86
2021/08/26 02:54:14;;;;;;;8.57;1.73;;;15.80;99.60;;;;;;4988812;28;20031;-85
2021/08/26 02:56:39;;;;;;;12.80;1.52;;;15.80;99.50;;;;;;4988743;28;20161;-86
2021/08/26 02:59:05;;;;;;;11.35;1.88;;;15.80;99.40;;;;;;4993722;28;20030;-86
2021/08/26 03:01:31;;;;;;;9.35;1.40;;;15.80;99.60;;;;;;4992506;28;20121;-85
2021/08/26 03:03:56;;;;;;;8.13;1.95;;;15.80;99.20;;;;;;4991585;28;20026;-86
2021/08/26 03:06:22;;;;;;;11.15;1.92;;;15.70;99.10;;;;;;4991152;28;20596;-86
2021/08/26 03:08:47;;;;;;;9.68;1.88;;;15.70;99.00;;;;;;4988465;28;20062;-86
2021/08/26 03:11:13;;;;;;;12.80;2.00;;;15.70;98.90;;;;;;4990869;28;20080;-86
2021/08/26 03:13:38;;;;;;;9.48;2.35;;;15.70;98.90;;;;;;4990149;28;20018;-86
2021/08/26 03:16:05;;;;;;;10.18;1.77;;;15.70;98.90;;;;;;4990555;28;20166;-86
2021/08/26 03:18:31;;;;;;;10.63;2.70;;;15.70;98.70;;;;;;4987047;28;20019;-86
2021/08/26 03:20:57;;;;;;;11.65;1.63;;;15.70;98.70;;;;;;4990511;28;20026;-85
2021/08/26 03:23:22;;;;;;;13.43;2.42;;;15.70;98.70;;;;;;4989601;28;20038;-86
2021/08/26 03:25:48;;;;;;;12.60;1.90;;;15.70;98.70;;;;;;4993081;28;20050;-86
2021/08/26 03:28:17;;;;;;;16.15;2.60;;;15.60;98.60;;;;;;4992123;28;20058;-86
2021/08/26 03:30:43;;;;;;;8.45;1.88;;;15.60;98.60;;;;;;4991539;28;20106;-86
2021/08/26 03:33:08;;;;;;;13.02;2.33;;;15.60;98.60;;;;;;4991495;28;20109;-85
2021/08/26 03:35:34;;;;;;;14.20;2.22;;;15.60;98.60;;;;;;4988727;28;20034;-86
2021/08/26 03:37:59;;;;;;;9.95;1.77;;;15.60;98.50;;;;;;4988809;28;20042;-86
2021/08/26 03:40:25;;;;;;;10.05;2.17;;;15.60;98.50;;;;;;4990385;28;20053;-86
2021/08/26 03:42:50;;;;;;;12.68;2.50;;;15.60;98.50;;;;;;4990625;28;20041;-86
2021/08/26 03:45:16;;;;;;;13.55;2.17;;;15.60;98.50;;;;;;4989352;28;20030;-87
2021/08/26 03:47:41;;;;;;;8.70;1.55;;;15.50;98.40;;;;;;4990939;28;20030;-86
2021/08/26 03:50:07;;;;;;;10.60;2.28;;;15.50;98.40;;;;;;4992100;28;20065;-86
2021/08/26 03:52:33;;;;;;;12.45;2.80;;;15.50;98.70;;;;;;4987979;28;20034;-86
2021/08/26 03:54:58;;;;;;;12.65;1.88;;;15.50;98.40;;;;;;4991036;28;20030;-86
2021/08/26 03:57:24;;;;;;;14.15;1.77;;;15.50;98.40;;;;;;4991091;28;20073;-86
2021/08/26 03:59:50;;;;;;;9.63;1.80;;;15.50;98.40;;;;;;4990144;28;20041;-86
2021/08/26 04:02:15;;;;;;;13.35;2.10;;;15.50;98.40;;;;;;4990337;28;20126;-85
2021/08/26 04:04:41;;;;;;;12.88;1.90;;;15.50;98.30;;;;;;4991367;28;20091;-86
2021/08/26 04:07:06;;;;;;;7.63;1.75;;;15.40;98.30;;;;;;4990151;28;20520;-87
2021/08/26 04:09:32;;;;;;;9.88;1.77;;;15.50;98.40;;;;;;4990127;28;20057;-86
2021/08/26 04:11:57;;;;;;;14.75;1.80;;;15.40;98.30;;;;;;4989186;28;20037;-86
2021/08/26 04:14:23;;;;;;;12.43;1.73;;;15.40;98.20;;;;;;4984606;28;20030;-86
2021/08/26 04:16:49;;;;;;;20.63;2.42;;;15.40;98.20;;;;;;4988923;28;20044;-85
2021/08/26 04:19:15;;;;;;;6.85;1.58;;;15.40;98.20;;;;;;4987684;28;20027;-86
2021/08/26 04:21:40;;;;;;;10.10;1.95;;;15.40;98.10;;;;;;4991196;28;20125;-86
2021/08/26 04:24:06;;;;;;;10.25;1.52;;;15.40;98.10;;;;;;4982094;28;20026;-87
2021/08/26 04:26:31;;;;;;;10.15;1.63;;;15.40;98.00;;;;;;4989022;28;20411;-86
2021/08/26 04:28:57;;;;;;;10.30;1.60;;;15.40;98.00;;;;;;4976158;28;20031;-86
2021/08/26 04:31:22;;;;;;;15.68;2.47;;;15.30;97.90;;;;;;4986899;28;20077;-86
2021/08/26 04:33:48;;;;;;;17.05;2.83;;;15.40;97.90;;;;;;4984733;28;20386;-86
2021/08/26 04:36:13;;;;;;;19.42;1.75;;;15.40;97.80;;;;;;4988113;28;20030;-86
2021/08/26 04:38:39;;;;;;;12.15;2.50;;;15.40;97.70;;;;;;4986139;28;20026;-86
2021/08/26 04:41:06;;;;;;;7.10;1.52;;;15.40;97.70;;;;;;4986968;28;20377;-86
2021/08/26 04:43:31;;;;;;;10.00;1.50;;;15.40;97.60;;;;;;4984771;28;20122;-86
2021/08/26 04:45:57;;;;;;;8.93;1.38;;;15.30;97.60;;;;;;5021932;28;20077;-86
2021/08/26 04:48:22;;;;;;;10.18;1.55;;;15.30;97.60;;;;;;4988019;28;20026;-86
2021/08/26 04:50:48;;;;;;;10.30;1.60;;;15.30;97.60;;;;;;4989732;28;20034;-85
2021/08/26 04:53:13;;;;;;;16.95;1.98;;;15.30;97.50;;;;;;4992921;28;20368;-86
2021/08/26 04:55:39;;;;;;;12.15;1.48;;;15.30;97.50;;;;;;4991600;28;20042;-86
2021/08/26 04:58:04;;;;;;;13.32;2.22;;;15.30;97.50;;;;;;4994103;23;20031;-86
2021/08/26 05:00:30;;;;;;;15.82;1.90;;;15.30;97.50;;;;;;4945905;28;20040;-86
2021/08/26 05:02:55;;;;;;;9.38;1.55;;;15.20;97.40;;;;;;4952292;28;20098;-86
2021/08/26 05:05:21;;;;;;;8.18;1.48;;;15.30;97.40;;;;;;4954290;29;20499;-86
2021/08/26 05:07:46;;;;;;;10.77;1.50;;;15.20;97.40;;;;;;4956642;28;20032;-86
2021/08/26 05:10:12;;;;;;;10.85;1.52;;;15.30;97.70;;;;;;4951887;28;20091;-86
2021/08/26 05:12:37;;;;;;;6.60;1.20;;;15.30;97.40;;;;;;4954712;28;20118;-86
2021/08/26 05:15:04;;;;;;;10.70;1.58;;;15.30;97.40;;;;;;4955236;29;20095;-86
2021/08/26 05:17:29;;;;;;;13.07;1.58;;;15.30;97.50;;;;;;4952827;29;20038;-87
2021/08/26 05:19:55;;;;;;;8.60;1.30;;;15.30;97.40;;;;;;4947028;29;20490;-86
2021/08/26 05:22:20;;;;;;;15.38;1.88;;;15.30;97.40;;;;;;4952161;28;20044;-86
2021/08/26 05:24:47;;;;;;;9.48;2.08;;;15.30;97.40;;;;;;4946670;28;20376;-86
2021/08/26 05:27:13;;;;;;;19.55;3.20;;;15.30;97.40;;;;;;4947956;28;20023;-86
2021/08/26 05:29:38;;;;;;;8.68;1.35;;;15.30;97.40;;;;;;4950233;28;20034;-86
2021/08/26 05:32:04;;;;;;;11.57;1.65;;;15.40;97.30;;;;;;4947505;28;20031;-86
2021/08/26 05:34:30;;;;;;;17.42;2.05;;;15.40;97.30;;;;;;4944926;29;20110;-85
2021/08/26 05:36:55;;;;;;;11.55;1.63;;;15.40;97.30;;;;;;4943646;28;20488;-85
2021/08/26 05:39:21;;;;;;;11.30;1.45;;;15.50;97.30;;;;;;4948985;29;20512;-85
2021/08/26 05:41:46;;;;;;;10.38;1.63;;;15.50;97.20;;;;;;4942709;28;20032;-85
2021/08/26 05:44:16;;;;;;;11.43;1.90;;;15.50;97.20;;;;;;4952223;28;20063;-85
2021/08/26 05:46:42;;;;;;;8.75;0.90;;;15.50;97.10;;;;;;4955829;28;20407;-85
2021/08/26 05:49:08;;;;;;;6.85;1.05;;;15.60;97.10;;;;;;4954626;28;20094;-85
2021/08/26 05:51:34;;;;;;;8.52;0.90;;;15.60;97.00;;;;;;4958353;29;20035;-85
2021/08/26 05:53:59;;;;;;;13.07;1.58;;;15.60;96.90;;;;;;4959939;28;20027;-84
2021/08/26 05:56:26;;;;;;;12.32;1.20;;;15.70;96.90;;;;;;4958227;28;20035;-85
2021/08/26 05:58:52;;;;;;;11.02;1.17;;;15.70;96.80;;;;;;4951477;28;20043;-85
2021/08/26 06:01:18;;;;;;;18.33;1.70;;;15.70;96.70;;;;;;4944741;28;20102;-85
2021/08/26 06:03:43;;;;;;;7.18;1.35;;;15.80;96.60;;;;;;4954033;28;20027;-85
2021/08/26 06:06:09;;;;;;;13.05;1.23;;;15.80;96.50;;;;;;4953752;28;20255;-85
2021/08/26 06:08:34;;;;;;;10.10;0.90;;;15.80;96.40;;;;;;4952150;28;20496;-85
2021/08/26 06:11:00;;;;;;;10.73;1.33;;;15.90;96.30;;;;;;4952936;28;20035;-84
2021/08/26 06:13:25;;;;;;;9.82;1.52;;;15.90;96.20;;;;;;4954970;28;20388;-85
2021/08/26 06:15:51;;;;;;;14.00;1.10;;;15.90;96.10;;;;;;4955064;28;20027;-85
2021/08/26 06:18:17;;;;;;;9.38;0.88;;;15.90;96.00;;;;;;4951487;29;20031;-85
2021/08/26 06:20:44;;;;;;;8.45;1.08;;;16.00;95.90;;;;;;4952263;28;20032;-85
2021/08/26 06:23:10;;;;;;;9.10;1.08;;;16.00;95.80;;;;;;4951591;28;20083;-85
2021/08/26 06:25:35;;;;;;;10.35;0.82;;;16.00;95.70;;;;;;4953526;28;20043;-85
2021/08/26 06:28:01;;;;;;;12.25;1.02;;;16.10;95.70;;;;;;4955085;28;20039;-85
2021/08/26 06:30:27;;;;;;;7.43;1.38;;;16.10;95.60;;;;;;4952323;29;20027;-85
2021/08/26 06:32:53;;;;;;;11.27;0.75;;;16.20;95.60;;;;;;4952774;29;20027;-84
2021/08/26 06:35:19;;;;;;;10.00;1.00;;;16.30;95.50;;;;;;4950349;28;20031;-85
2021/08/26 06:37:44;;;;;;;11.55;1.25;;;16.20;95.30;;;;;;4952386;29;20034;-84
2021/08/26 06:40:11;;;;;;;10.30;1.10;;;16.30;95.30;;;;;;4955515;29;20027;-85
2021/08/26 06:42:37;;;;;;;6.53;0.98;;;16.30;95.30;;;;;;4954667;28;20412;-85
2021/08/26 06:45:03;;;;;;;9.70;0.60;;;16.30;95.20;;;;;;4954740;29;20035;-85
2021/08/26 06:47:29;;;;;;;16.25;1.30;;;16.40;95.20;;;;;;4954297;28;20032;-85
2021/08/26 06:49:54;;;;;;;11.43;0.80;;;16.40;95.00;;;;;;4943708;28;20065;-84
2021/08/26 06:52:20;;;;;;;7.13;2.15;;;16.50;95.00;;;;;;4954935;28;20035;-84
2021/08/26 06:54:45;;;;;;;11.15;0.75;;;16.50;94.90;;;;;;4953980;28;20031;-84
2021/08/26 06:57:11;;;;;;;6.18;0.70;;;16.60;94.50;;;;;;4952197;28;20027;-84
2021/08/26 06:59:36;;;;;;;10.70;1.27;;;16.60;94.60;;;;;;4954159;28;20049;-84
2021/08/26 07:02:02;;;;;;;5.88;0.70;;;16.60;94.50;;;;;;4955716;28;20031;-84
2021/08/26 07:04:27;;;;;;;6.68;0.65;;;16.70;94.10;;;;;;4953451;29;20035;-84
2021/08/26 07:06:54;;;;;;;5.82;0.50;;;16.80;94.20;;;;;;4948944;28;20067;-85
2021/08/26 07:09:20;;;;;;;6.10;0.75;;;16.90;94.20;;;;;;4956576;29;20027;-85
2021/08/26 07:11:46;;;;;;;8.52;0.90;;;17.00;93.90;;;;;;4957506;28;20042;-84
2021/08/26 07:14:12;;;;;;;8.20;1.00;;;17.00;93.80;;;;;;4955903;29;20031;-84
2021/08/26 07:16:37;;;;;;;6.43;0.90;;;17.10;93.70;;;;;;4955471;29;20035;-84
2021/08/26 07:19:03;;;;;;;7.20;0.80;;;17.00;93.40;;;;;;4952949;28;20027;-84
2021/08/26 07:21:28;;;;;;;5.90;1.17;;;17.00;93.30;;;;;;4954613;28;20416;-84
2021/08/26 07:23:54;;;;;;;5.05;0.50;;;17.00;93.50;;;;;;4955791;28;20188;-84
2021/08/26 07:26:20;;;;;;;8.23;0.93;;;17.00;93.30;;;;;;4950012;28;20039;-84
2021/08/26 07:28:46;;;;;;;4.05;0.47;;;17.00;93.30;;;;;;4956778;28;20427;-84
2021/08/26 07:31:12;;;;;;;8.80;0.85;;;17.10;93.30;;;;;;4969378;28;20074;-84
2021/08/26 07:33:38;;;;;;;6.93;0.60;;;17.10;93.20;;;;;;4946942;28;20134;-84
2021/08/26 07:36:04;;;;;;;7.88;1.33;;;17.20;93.20;;;;;;4945111;28;20080;-84
2021/08/26 07:38:29;;;;;;;4.47;0.70;;;17.20;93.20;;;;;;4934350;29;20493;-84
2021/08/26 07:40:55;;;;;;;13.40;0.70;;;17.30;93.20;;;;;;4936441;29;20111;-84
2021/08/26 07:43:24;;;;;;;8.98;1.05;;;17.30;93.30;;;;;;4940131;28;20031;-84
2021/08/26 07:45:50;;;;;;;6.53;0.70;;;17.40;93.30;;;;;;4951907;28;20027;-84
2021/08/26 07:48:17;;;;;;;9.93;0.73;;;17.50;93.20;;;;;;4945602;29;20030;-83
2021/08/26 07:50:43;;;;;;;5.72;0.60;;;17.60;93.00;;;;;;4946221;28;20122;-84
2021/08/26 07:53:09;;;;;;;8.20;0.80;;;17.50;92.70;;;;;;4934892;28;20024;-84
2021/08/26 07:55:34;;;;;;;8.13;0.70;;;17.50;92.70;;;;;;4935532;28;20039;-84
2021/08/26 07:58:00;;;;;;;5.53;0.63;;;17.50;92.70;;;;;;4937355;28;20035;-84
2021/08/26 08:00:25;;;;;;;4.65;0.70;;;17.50;92.70;;;;;;4950310;28;20051;-84
2021/08/26 08:02:51;;;;;;;3.65;0.90;;;17.40;92.60;;;;;;4951602;28;20440;-84
2021/08/26 08:05:16;;;;;;;5.05;0.80;;;17.40;92.70;;;;;;4954185;28;20031;-84
2021/08/26 08:07:45;;;;;;;6.82;1.08;;;17.30;92.90;;;;;;4952075;28;20043;-84
2021/08/26 08:10:12;;;;;;;5.82;0.60;;;17.20;93.20;;;;;;4952068;29;20031;-82
2021/08/26 08:12:38;;;;;;;8.43;0.88;;;17.20;93.50;;;;;;4949303;29;20035;-83
2021/08/26 08:15:04;;;;;;;6.70;0.73;;;17.00;93.70;;;;;;4956042;28;20035;-83
2021/08/26 08:17:29;;;;;;;3.88;0.50;;;16.90;94.00;;;;;;4954539;28;20027;-83
2021/08/26 08:19:55;;;;;;;4.88;0.50;;;16.80;94.30;;;;;;4952749;28;20037;-83
2021/08/26 08:22:21;;;;;;;4.07;0.60;;;16.80;94.60;;;;;;4955084;28;20039;-84
2021/08/26 08:24:46;;;;;;;7.65;0.82;;;16.80;94.90;;;;;;4955432;29;20070;-83
2021/08/26 08:27:12;;;;;;;6.68;1.02;;;16.80;95.10;;;;;;4955595;28;20050;-84
2021/08/26 08:29:37;;;;;;;6.57;0.68;;;16.80;95.30;;;;;;4953899;29;20035;-83
2021/08/26 08:32:03;;;;;;;6.60;1.02;;;17.00;95.70;;;;;;4954233;28;20373;-83
2021/08/26 08:34:28;;;;;;;5.18;0.73;;;17.20;95.30;;;;;;4952606;28;20062;-83
2021/08/26 08:36:54;;;;;;;3.88;0.65;;;17.30;95.20;;;;;;4954881;28;20035;-83
2021/08/26 08:39:21;;;;;;;3.08;0.55;;;17.40;95.00;;;;;;4956486;28;20103;-83
2021/08/26 08:41:47;;;;;;;6.00;0.60;;;17.40;94.90;;;;;;4954188;29;20035;-83
2021/08/26 08:44:13;;;;;;;8.07;0.70;;;17.40;94.80;;;;;;4955573;28;20027;-83
2021/08/26 08:46:39;;;;;;;5.60;0.95;;;17.40;94.70;;;;;;4954646;28;20031;-84
2021/08/26 08:49:06;;;;;;;4.20;0.60;;;17.30;95.00;;;;;;4952372;28;20102;-83
2021/08/26 08:51:32;;;;;;;6.40;0.65;;;17.30;95.10;;;;;;4949753;29;20027;-84
2021/08/26 08:53:58;;;;;;;6.88;0.68;;;17.30;95.10;;;;;;4941998;28;20119;-84
2021/08/26 08:56:26;;;;;;;7.15;1.02;;;17.40;95.00;;;;;;4951345;29;20027;-83
2021/08/26 08:58:55;;;;;;;3.72;0.52;;;17.50;94.90;;;;;;4951662;28;20392;-84
2021/08/26 09:01:21;;;;;;;4.45;0.63;;;17.50;95.00;;;;;;4937905;29;20028;-84
2021/08/26 09:03:46;;;;;;;5.57;0.90;;;17.50;94.60;;;;;;4953073;28;20660;-84
2021/08/26 09:06:12;;;;;;;6.38;0.80;;;17.50;94.60;;;;;;4936242;28;20023;-83
2021/08/26 09:08:37;;;;;;;3.83;0.65;;;17.40;94.60;;;;;;4945801;28;20031;-83
2021/08/26 09:11:11;;;;;;;6.63;1.00;;;17.40;94.90;;;;;;4952186;28;20456;-82
2021/08/26 09:13:37;;;;;;;2.55;0.60;;;17.20;95.10;;;;;;4955232;28;20054;-83
2021/08/26 09:16:03;;;;;;;4.93;0.60;;;17.10;95.60;;;;;;4954008;28;20046;-83
2021/08/26 09:18:29;;;;;;;4.88;0.60;;;17.20;95.90;;;;;;4958181;28;20475;-83
2021/08/26 09:20:57;;;;;;;7.40;1.08;;;17.20;96.20;;;;;;4951051;28;20396;-83
2021/08/26 09:23:25;;;;;;;5.07;0.88;;;17.20;96.40;;;;;;4950640;28;20125;-83
2021/08/26 09:25:52;;;;;;;4.78;0.60;;;17.30;96.60;;;;;;4958996;28;20019;-83
2021/08/26 09:28:29;;;;;;;4.28;0.70;;;17.40;96.40;;;;;;4957395;28;20209;-83
2021/08/26 09:31:15;;;;;;;5.25;0.77;;;17.50;96.40;;;;;;4956950;28;20031;-83
2021/08/26 09:33:49;;;;;;;6.78;0.90;;;17.80;96.30;;;;;;4949414;28;20055;-83
2021/08/26 09:36:30;;;;;;;5.45;0.60;;;18.00;95.90;;;;;;4958724;28;20077;-83
2021/08/26 09:39:01;;;;;;;4.45;0.50;;;18.20;95.60;;;;;;4957713;28;20027;-83
2021/08/26 09:41:47;;;;;;;9.18;0.90;;;18.30;95.40;;;;;;4958007;28;20041;-83
2021/08/26 09:44:24;;;;;;;8.25;1.08;;;18.50;95.30;;;;;;4958655;28;20102;-83
2021/08/26 09:46:51;;;;;;;5.07;1.23;;;18.60;94.60;;;;;;4958203;28;20027;-83
2021/08/26 09:49:19;;;;;;;7.13;0.80;;;18.70;94.30;;;;;;4957237;28;20480;-83
2021/08/26 09:52:00;;;;;;;6.53;0.60;;;18.50;94.10;;;;;;4957321;28;20035;-83
2021/08/26 09:54:34;;;;;;;4.63;0.98;;;18.20;94.40;;;;;;4956756;28;20031;-84
2021/08/26 09:57:01;;;;;;;6.57;0.98;;;17.80;94.80;;;;;;4958364;28;20090;-84
2021/08/26 09:59:47;;;;;;;6.30;1.20;;;17.40;95.40;;;;;;4957700;28;20557;-84
2021/08/26 10:02:14;;;;;;;7.97;1.17;;;17.10;96.10;;;;;;4956191;29;20039;-83
2021/08/26 10:04:41;;;;;;;10.65;1.35;;;16.90;96.80;;;;;;4954015;28;20031;-84
2021/08/26 10:07:09;;;;;;;5.55;0.70;;;16.80;97.40;;;;;;4957453;28;20023;-84
2021/08/26 10:09:37;;;;;;;3.53;0.93;;;17.00;97.80;;;;;;4954588;28;20030;-84
2021/08/26 10:12:04;;;;;;;5.80;1.02;;;17.20;97.70;;;;;;4939749;29;20519;-83
2021/08/26 10:14:32;;;;;;;4.55;0.70;;;17.40;97.80;;;;;;4954328;29;20062;-83
2021/08/26 10:16:59;;;;;;;5.13;0.90;;;17.50;97.50;;;;;;4952595;29;20032;-84
2021/08/26 10:19:25;;;;;;;3.83;0.88;;;17.70;97.50;;;;;;4940996;28;20062;-83
2021/08/26 10:21:51;;;;;;;4.70;0.90;;;17.80;97.40;;;;;;4942819;29;20039;-83
2021/08/26 10:24:19;;;;;;;5.78;0.60;;;18.10;96.90;;;;;;4951327;28;20035;-83
2021/08/26 10:26:48;;;;;;;4.65;0.70;;;18.30;96.70;;;;;;4939469;29;20039;-83
2021/08/26 10:29:17;;;;;;;5.38;0.60;;;18.50;96.40;;;;;;4943375;29;20024;-83
2021/08/26 10:31:53;;;;;;;4.85;0.80;;;18.60;96.00;;;;;;4953050;29;20023;-83
2021/08/26 10:34:21;;;;;;;6.32;0.80;;;18.60;95.50;;;;;;4957397;28;20039;-82
2021/08/26 10:36:59;;;;;;;10.30;1.35;;;18.60;95.70;;;;;;4947166;28;20046;-83
2021/08/26 10:39:36;;;;;;;5.47;0.82;;;18.40;95.40;;;;;;4940983;29;20032;-83
2021/08/26 10:42:18;;;;;;;9.57;1.35;;;18.20;95.50;;;;;;4939082;28;20519;-82
2021/08/26 10:45:09;;;;;;;8.48;0.90;;;18.20;95.70;;;;;;4951297;28;20035;-83
2021/08/26 10:47:56;;;;;;;7.18;1.00;;;18.20;95.70;;;;;;4953068;28;20028;-83
2021/08/26 10:50:23;;;;;;;3.67;0.90;;;18.20;95.40;;;;;;4939040;28;20042;-83
2021/08/26 10:52:59;;;;;;;8.85;0.90;;;18.30;95.40;;;;;;4940788;29;20032;-82
2021/08/26 10:55:34;;;;;;;5.90;1.00;;;18.30;94.90;;;;;;4956674;29;20078;-83
2021/08/26 10:58:18;;;;;;;5.57;0.80;;;18.40;94.80;;;;;;4958627;29;20030;-83
2021/08/26 11:00:44;;;;;;;6.07;0.85;;;18.20;94.70;;;;;;4957231;28;20491;-82
2021/08/26 11:03:30;;;;;;;9.23;1.25;;;18.10;95.10;;;;;;4953731;28;20043;-83
2021/08/26 11:05:56;;;;;;;9.13;1.25;;;18.00;95.30;;;;;;4956800;28;20110;-82
2021/08/26 11:08:31;;;;;;;8.00;1.48;;;18.00;95.30;;;;;;4956730;29;20463;-82
2021/08/26 11:11:18;;;;;;;10.85;1.67;;;18.00;95.30;;;;;;4957162;29;20046;-83
2021/08/26 11:13:44;;;;;;;6.03;0.85;;;17.90;95.50;;;;;;4957072;28;20028;-83
2021/08/26 11:16:32;;;;;;;5.55;1.08;;;18.10;95.80;;;;;;4957075;29;20038;-83
2021/08/26 11:19:19;;;;;;;7.38;1.10;;;18.40;95.40;;;;;;4956032;28;20057;-83
2021/08/26 11:21:45;;;;;;;7.85;1.05;;;18.60;95.20;;;;;;4950375;29;20047;-82
2021/08/26 11:24:30;;;;;;;6.35;1.02;;;18.70;95.10;;;;;;4949423;28;20034;-83
2021/08/26 11:27:16;;;;;;;8.63;1.05;;;19.00;95.00;;;;;;4955699;28;20034;-83
2021/08/26 11:29:41;;;;;;;8.88;0.82;;;19.20;94.60;;;;;;4956428;28;20492;-83
2021/08/26 11:32:09;;;;;;;6.97;1.25;;;19.40;94.40;;;;;;4956453;28;20027;-83
2021/08/26 11:34:43;;;;;;;5.45;1.00;;;19.60;93.70;;;;;;4955349;28;20028;-83
2021/08/26 11:37:14;;;;;;;6.95;1.02;;;19.60;93.40;;;;;;4955174;28;20081;-83
2021/08/26 11:39:42;;;;;;;8.40;1.30;;;19.60;93.10;;;;;;4956585;28;20027;-83
2021/08/26 11:42:25;;;;;;;6.85;0.90;;;19.60;93.10;;;;;;4953847;28;20046;-83
2021/08/26 11:45:14;;;;;;;8.05;1.00;;;19.50;92.90;;;;;;4957247;28;20023;-83
2021/08/26 11:48:00;;;;;;;7.95;1.55;;;19.40;92.70;;;;;;4946533;28;20079;-84
2021/08/26 11:50:33;;;;;;;8.35;1.13;;;19.30;92.80;;;;;;4956138;28;20027;-83
2021/08/26 11:53:08;;;;;;;;;;;19.30;92.70;;;;;;4943920;28;20028;-84
2021/08/26 11:55:44;;;;;;;7.18;1.63;;;19.40;92.90;;;;;;4937339;29;20005;-82
2021/08/26 11:58:11;;;;;;;9.10;1.40;;;19.60;92.70;;;;;;4937988;29;20031;-84
2021/08/26 12:00:42;;;;;;;8.43;1.58;;;19.60;91.90;;;;;;4952156;28;20051;-84
2021/08/26 12:03:08;;;;;;;18.33;2.15;;;19.70;92.00;;;;;;4955099;28;20039;-84
2021/08/26 12:05:34;;;;;;;9.05;1.30;;;19.80;91.80;;;;;;4951978;28;20507;-84
2021/08/26 12:08:05;;;;;;;8.20;1.55;;;20.00;91.70;;;;;;4946598;28;20074;-83
2021/08/26 12:10:39;;;;;;;10.05;1.80;;;20.20;91.40;;;;;;4938604;28;20024;-84
2021/08/26 12:13:11;;;;;;;9.85;1.52;;;20.30;91.10;;;;;;4948508;29;20465;-84
2021/08/26 12:15:41;;;;;;;7.20;1.65;;;20.30;91.00;;;;;;4944907;28;20035;-84
2021/08/26 12:18:11;;;;;;;10.77;2.03;;;20.40;90.90;;;;;;4953675;29;20051;-84
2021/08/26 12:20:49;;;;;;;8.10;1.50;;;20.30;90.80;;;;;;4956091;28;20049;-84
2021/08/26 12:23:20;;;;;;;6.72;1.40;;;20.20;90.70;;;;;;4956527;28;20038;-84
2021/08/26 12:26:06;;;;;;;8.00;1.30;;;20.10;90.50;;;;;;4955273;29;20035;-83
2021/08/26 12:28:33;;;;;;;9.68;1.65;;;20.00;90.10;;;;;;4944170;28;20110;-83
2021/08/26 12:30:59;;;;;;;9.20;1.83;;;19.80;90.30;;;;;;4952332;28;20035;-84
2021/08/26 12:33:24;;;;;;;7.85;1.40;;;19.60;90.50;;;;;;4950621;28;20052;-83
2021/08/26 12:35:55;;;;;;;11.52;2.05;;;19.60;91.00;;;;;;4949433;28;20063;-83
2021/08/26 12:38:40;;;;;;;9.68;1.88;;;19.60;90.60;;;;;;4942908;28;20027;-84
2021/08/26 12:41:08;;;;;;;9.23;1.52;;;19.70;90.60;;;;;;4952391;28;20031;-83
2021/08/26 12:43:43;;;;;;;8.48;1.40;;;19.70;90.40;;;;;;4955098;28;20027;-83
2021/08/26 12:46:12;;;;;;;12.60;1.67;;;19.80;90.20;;;;;;4955582;28;20365;-83
2021/08/26 12:48:39;;;;;;;9.75;2.17;;;19.80;90.20;;;;;;4952504;29;20404;-83
2021/08/26 12:51:17;;;;;;;9.23;1.58;;;19.90;90.20;;;;;;4950913;28;20023;-83
2021/08/26 12:54:07;;;;;;;9.68;1.88;;;20.10;89.80;;;;;;4949737;28;20043;-83